Ancram, New York
Current Conditions -  °F | °C
As of 6:04 PM on Thursday 23 Oct 2014 (Local Time) from KPOU Reporting Station
Overcast Overcast  
Wind Chill: 11°   Ceiling: 3500
Heat Index: 11°   Visibility: 10mi
Dew Point:   Wind: 16mph
Humidity: 77%   Direction: 360°N
Pressure: 29.77"   Gusts: 25mph
Location:  42.05°N, 73.64°W
Report Text: KPOU 232204Z 36014G22KT 10SM SCT020 OVC035 11/07 A2977 RMK AO2 T01060067
Loading
Personal Weather Stations






























Interactive Weather Map
Tropical Storm Tracking
New forecast layout! Learn more

10-Day Weather Forecast

Advertisements
Track Severe Weather on mobile